Condat sur Vézère

LFDZ · Dordogne, Nouvelle-Aquitaine, 法国

2022年12月9日 07:002022年12月9日 16:00有效
时间
星期五
07:00
>40%
星期五
08:00
>40%
星期五
09:00
>40%
星期五
10:00
>40%
星期五
11:00
星期五
12:00
星期五
13:00
星期五
14:00
星期五
15:00
>40%
代码
IFR
IFR
IFR
IFR
VFR
VFR
VFR
VFR
MVFR
天气
光 雨
天空晴朗
光 雨
天空晴朗
光 雨
天空晴朗
光 雨
天空晴朗
碎云
碎云
碎云
碎云
碎云
能见度
4 km
4 km
4 km
4 km
10 km+
10 km+
10 km+
10 km+
10 km+
天花板
1.500 ft
1.500 ft
1.500 ft
1.500 ft
3.500 ft
3.500 ft
3.500 ft
3.500 ft
1.200 ft
Var
Var
Var
Var
Var
Var
Var
Var
Var
Var
Var
Var
Var
Var
Var
Var
Var
Var
速度
3 kt
3 kt
3 kt
3 kt
3 kt
3 kt
3 kt
3 kt
3 kt
阵风
温度/星期日
08:20

原版的

TAF LFSL 090500Z 0906/0915 VRB03KT 9999 BKN035
TEMPO 0906/0910 4000 -RA BKN015
TEMPO 0914/0915 BKN012

TAF Condat sur Vézère

Condat sur Vézère是,法国中的小机场。 视场标高为499 ft。 该领域的国际民航组织标志是LFDZ.

这份报告是针对2022年12月9日 06:00, 当地时间在Brive-Souillac进行的。 从2022年12月9日 07:00到2022年12月9日 16:00, 当地时间有效.

预报

  • 在星期五 07:00和16:00之间

    • 风: 可变方向的风很小或没有。
    • 能见度: 10 km 或者更多
    • 乌云: 碎云在3.500 ft的高度.

  • 暂时在星期五 07:00和11:00之间

    • 能见度: 4 km
    • 天气: 光 雨
    • 乌云: 碎云在1.500 ft的高度.

  • 暂时在星期五 15:00和16:00之间

    • 乌云: 碎云在1.200 ft的高度.

白天

今天,太阳从08:21升起,在17:13降落。 这适用于Condat sur Vézère,世界夏令时可能有所不同。 当地时间与世界标准时间之间的时差为+1 小时。 当前,没有夏令时有效。

我们和第三方通过cookies跟踪您在我们网站上的互联网行为。如果你继续,我们认为你同意我们的饼干政策